Time;durP1;ratioP1;P1;durP2;ratioP2;P2;SDS_P1;SDS_P2;PMS_P1;PMS_P2;Temp;Humidity;BMP_temperature;BMP_pressure;BME280_temperature;BME280_humidity;BME280_pressure;Samples;Min_cycle;Max_cycle;Signal;HPM_P1;HPM_P2
2023/07/23 00:01:02;;;;;;;2.75;2.47;;;;;;;;;;5006676;28;20057;-78
2023/07/23 00:03:43;;;;;;;2.53;2.40;;;;;;;;;;5002584;28;20065;-78
2023/07/23 00:06:11;;;;;;;2.90;2.70;;;;;;;;;;5004457;28;20045;-78
2023/07/23 00:08:38;;;;;;;3.13;2.83;;;;;;;;;;4994987;28;20057;-78
2023/07/23 00:11:06;;;;;;;3.80;3.20;;;;;;;;;;4984700;28;20042;-78
2023/07/23 00:13:33;;;;;;;4.13;2.75;;;;;;;;;;4996058;28;20050;-78
2023/07/23 00:16:01;;;;;;;3.33;3.10;;;;;;;;;;5005058;28;20070;-78
2023/07/23 00:18:28;;;;;;;2.85;2.63;;;;;;;;;;5004889;28;20064;-77
2023/07/23 00:20:56;;;;;;;3.22;2.92;;;;;;;;;;5002904;28;20064;-77
2023/07/23 00:23:23;;;;;;;3.03;2.83;;;;;;;;;;5008160;28;20503;-78
2023/07/23 00:25:50;;;;;;;4.20;2.67;;;;;;;;;;5001665;28;20074;-77
2023/07/23 00:28:18;;;;;;;2.90;2.70;;;;;;;;;;4997366;28;20050;-79
2023/07/23 00:30:45;;;;;;;2.47;2.28;;;;;;;;;;4989682;28;20053;-79
2023/07/23 00:33:13;;;;;;;3.60;2.58;;;;;;;;;;5007610;28;20043;-78
2023/07/23 00:35:40;;;;;;;2.70;2.50;;;;;;;;;;4980218;28;20446;-79
2023/07/23 00:38:08;;;;;;;2.58;2.38;;;;;;;;;;5003554;28;20049;-78
2023/07/23 00:40:35;;;;;;;2.70;2.50;;;;;;;;;;4981230;28;20066;-78
2023/07/23 00:43:03;;;;;;;3.15;2.95;;;;;;;;;;5004515;28;20046;-79
2023/07/23 00:45:30;;;;;;;2.88;2.67;;;;;;;;;;4990248;28;20057;-79
2023/07/23 00:47:58;;;;;;;4.15;2.92;;;;;;;;;;4986623;28;20073;-79
2023/07/23 00:50:29;;;;;;;2.90;2.70;;;;;;;;;;4981532;28;20435;-78
2023/07/23 00:52:57;;;;;;;2.70;2.50;;;;;;;;;;4997089;28;20115;-79
2023/07/23 00:55:24;;;;;;;2.95;2.75;;;;;;;;;;4987080;28;20483;-78
2023/07/23 00:57:52;;;;;;;3.67;2.60;;;;;;;;;;5004998;28;20077;-78
2023/07/23 01:00:19;;;;;;;2.58;2.30;;;;;;;;;;5002445;28;20129;-78
2023/07/23 01:02:47;;;;;;;2.97;2.50;;;;;;;;;;4972456;28;20114;-78
2023/07/23 01:05:15;;;;;;;3.63;3.08;;;;;;;;;;4997963;28;20365;-79
2023/07/23 01:07:43;;;;;;;2.72;2.53;;;;;;;;;;4974340;28;20049;-78
2023/07/23 01:10:11;;;;;;;2.97;2.78;;;;;;;;;;5006376;28;20041;-78
2023/07/23 01:12:39;;;;;;;2.78;2.58;;;;;;;;;;4984425;28;20412;-78
2023/07/23 01:15:07;;;;;;;3.15;2.72;;;;;;;;;;5026001;22;20053;-75
2023/07/23 01:17:36;;;;;;;2.90;2.70;;;;;;;;;;5013541;28;20049;-76
2023/07/23 01:20:07;;;;;;;3.22;2.90;;;;;;;;;;5014493;28;20045;-73
2023/07/23 01:22:35;;;;;;;4.40;3.22;;;;;;;;;;5022677;28;20084;-75
2023/07/23 01:25:04;;;;;;;3.20;2.90;;;;;;;;;;5023946;28;20072;-75
2023/07/23 01:27:32;;;;;;;3.13;2.92;;;;;;;;;;5023871;28;20117;-73
2023/07/23 01:30:00;;;;;;;4.15;3.85;;;;;;;;;;5022548;28;20075;-73
2023/07/23 01:32:28;;;;;;;4.65;4.25;;;;;;;;;;5006819;28;20033;-74
2023/07/23 01:34:57;;;;;;;4.60;4.20;;;;;;;;;;5021314;28;21351;-73
2023/07/23 01:37:25;;;;;;;5.95;4.20;;;;;;;;;;5019709;28;20478;-74
2023/07/23 01:39:52;;;;;;;4.28;3.88;;;;;;;;;;5024349;28;20103;-73
2023/07/23 01:42:19;;;;;;;4.03;3.70;;;;;;;;;;5025357;28;20568;-75
2023/07/23 01:44:47;;;;;;;6.28;3.80;;;;;;;;;;5022099;28;20061;-75
2023/07/23 01:47:14;;;;;;;3.28;3.08;;;;;;;;;;5019366;28;20046;-73
2023/07/23 01:49:42;;;;;;;3.42;3.10;;;;;;;;;;5018529;28;20065;-76
2023/07/23 01:52:09;;;;;;;3.30;3.10;;;;;;;;;;5019857;28;20049;-76
2023/07/23 01:54:39;;;;;;;3.47;3.20;;;;;;;;;;5008853;28;20061;-75
2023/07/23 01:57:07;;;;;;;2.90;2.70;;;;;;;;;;5021530;28;20076;-74
2023/07/23 01:59:35;;;;;;;3.45;3.15;;;;;;;;;;5016942;28;20312;-72
2023/07/23 02:02:06;;;;;;;3.20;2.80;;;;;;;;;;5014001;28;20053;-75
2023/07/23 02:04:33;;;;;;;3.30;2.90;;;;;;;;;;5015352;28;20599;-73
2023/07/23 02:07:01;;;;;;;4.03;2.58;;;;;;;;;;5025130;28;20048;-76
2023/07/23 02:09:28;;;;;;;3.70;3.15;;;;;;;;;;5017623;28;20041;-75
2023/07/23 02:11:55;;;;;;;3.15;2.95;;;;;;;;;;5016988;28;20092;-76
2023/07/23 02:14:23;;;;;;;3.03;2.78;;;;;;;;;;5016623;28;20717;-76
2023/07/23 02:16:50;;;;;;;2.63;2.42;;;;;;;;;;5016833;28;20053;-73
2023/07/23 02:19:18;;;;;;;3.47;3.25;;;;;;;;;;5022217;28;20689;-73
2023/07/23 02:21:46;;;;;;;2.85;2.65;;;;;;;;;;5024582;28;20463;-75
2023/07/23 02:24:13;;;;;;;3.05;2.83;;;;;;;;;;5025426;28;20038;-76
2023/07/23 02:26:41;;;;;;;3.60;2.72;;;;;;;;;;5027412;28;20089;-73
2023/07/23 02:29:08;;;;;;;2.83;2.50;;;;;;;;;;5017387;28;20060;-73
2023/07/23 02:31:35;;;;;;;3.67;2.45;;;;;;;;;;5021348;28;20088;-72
2023/07/23 02:34:03;;;;;;;3.17;2.58;;;;;;;;;;5027524;28;20136;-73
2023/07/23 02:36:31;;;;;;;2.88;2.67;;;;;;;;;;5027403;28;20073;-75
2023/07/23 02:38:58;;;;;;;2.60;2.40;;;;;;;;;;5027063;28;20049;-74
2023/07/23 02:41:26;;;;;;;3.00;2.80;;;;;;;;;;5027679;28;20060;-73
2023/07/23 02:43:54;;;;;;;2.60;2.40;;;;;;;;;;5018421;28;20555;-76
2023/07/23 02:46:22;;;;;;;4.68;2.60;;;;;;;;;;5035558;28;20048;-72
2023/07/23 02:48:49;;;;;;;2.70;2.50;;;;;;;;;;5026509;28;20462;-72
2023/07/23 02:51:18;;;;;;;2.83;2.63;;;;;;;;;;5027685;28;20050;-76
2023/07/23 02:53:45;;;;;;;2.67;2.47;;;;;;;;;;5026258;28;20053;-75
2023/07/23 02:56:13;;;;;;;2.70;2.50;;;;;;;;;;5024319;28;20049;-73
2023/07/23 02:58:40;;;;;;;2.92;2.72;;;;;;;;;;5020820;28;20462;-72
2023/07/23 03:01:09;;;;;;;2.47;2.30;;;;;;;;;;5025822;28;20069;-76
2023/07/23 03:03:36;;;;;;;2.38;2.22;;;;;;;;;;5025464;28;20571;-73
2023/07/23 03:06:08;;;;;;;2.30;2.10;;;;;;;;;;5022245;28;20045;-76
2023/07/23 03:08:36;;;;;;;2.47;2.38;;;;;;;;;;5026730;28;20444;-75
2023/07/23 03:11:05;;;;;;;2.40;2.20;;;;;;;;;;5024539;28;20057;-73
2023/07/23 03:13:32;;;;;;;4.97;2.38;;;;;;;;;;5025982;28;20045;-73
2023/07/23 03:16:00;;;;;;;2.47;2.28;;;;;;;;;;5022252;28;20041;-73
2023/07/23 03:18:28;;;;;;;2.78;2.30;;;;;;;;;;5024177;28;20049;-76
2023/07/23 03:20:56;;;;;;;2.50;2.30;;;;;;;;;;5008635;28;20091;-75
2023/07/23 03:23:23;;;;;;;2.45;2.28;;;;;;;;;;5028466;28;20103;-73
2023/07/23 03:25:51;;;;;;;2.22;2.13;;;;;;;;;;5022794;28;20069;-74
2023/07/23 03:28:18;;;;;;;5.88;2.17;;;;;;;;;;5019588;28;20507;-76
2023/07/23 03:30:46;;;;;;;2.67;2.47;;;;;;;;;;5013103;28;20053;-73
2023/07/23 03:33:13;;;;;;;2.33;2.22;;;;;;;;;;5017739;28;20049;-73
2023/07/23 03:35:40;;;;;;;2.42;2.33;;;;;;;;;;5029093;28;20042;-73
2023/07/23 03:38:08;;;;;;;2.60;2.40;;;;;;;;;;5020254;28;20052;-76
2023/07/23 03:40:35;;;;;;;4.90;2.40;;;;;;;;;;5019681;28;20050;-73
2023/07/23 03:43:03;;;;;;;3.13;2.50;;;;;;;;;;5016377;28;20739;-73
2023/07/23 03:45:30;;;;;;;2.40;2.20;;;;;;;;;;5028301;28;20573;-74
2023/07/23 03:47:58;;;;;;;2.50;2.30;;;;;;;;;;5021615;28;20513;-73
2023/07/23 03:50:25;;;;;;;2.75;2.55;;;;;;;;;;5020115;28;20060;-76
2023/07/23 03:52:53;;;;;;;2.10;2.00;;;;;;;;;;5016037;28;20137;-75
2023/07/23 03:55:21;;;;;;;2.85;2.60;;;;;;;;;;5020268;28;20049;-74
2023/07/23 03:57:48;;;;;;;2.42;2.33;;;;;;;;;;5020869;28;20426;-73
2023/07/23 04:00:15;;;;;;;3.65;2.40;;;;;;;;;;5020508;28;20284;-73
2023/07/23 04:02:43;;;;;;;2.85;2.08;;;;;;;;;;5020721;28;20054;-73
2023/07/23 04:05:10;;;;;;;2.80;2.25;;;;;;;;;;5021036;28;20057;-72
2023/07/23 04:07:38;;;;;;;2.47;2.28;;;;;;;;;;5022355;28;20053;-74
2023/07/23 04:10:05;;;;;;;2.63;2.35;;;;;;;;;;5016329;28;20054;-72
2023/07/23 04:12:33;;;;;;;2.53;2.33;;;;;;;;;;5017873;28;20072;-73
2023/07/23 04:15:02;;;;;;;2.80;2.60;;;;;;;;;;5018106;28;20391;-73
2023/07/23 04:17:32;;;;;;;2.70;2.50;;;;;;;;;;5024060;28;20399;-74
2023/07/23 04:20:00;;;;;;;2.17;2.08;;;;;;;;;;5023948;28;20049;-72
2023/07/23 04:22:30;;;;;;;2.67;2.47;;;;;;;;;;5017675;28;20139;-72
2023/07/23 04:24:57;;;;;;;2.40;2.30;;;;;;;;;;5020533;28;20058;-74
2023/07/23 04:27:25;;;;;;;2.88;2.35;;;;;;;;;;5011007;28;20129;-75
2023/07/23 04:29:53;;;;;;;2.72;2.53;;;;;;;;;;5019148;28;20623;-72
2023/07/23 04:32:21;;;;;;;2.67;2.47;;;;;;;;;;5010645;28;20053;-73
2023/07/23 04:34:48;;;;;;;2.28;1.98;;;;;;;;;;5013315;28;20060;-73
2023/07/23 04:37:16;;;;;;;2.45;2.25;;;;;;;;;;5020982;28;20056;-74
2023/07/23 04:39:43;;;;;;;2.53;2.33;;;;;;;;;;5020738;28;20042;-72
2023/07/23 04:42:12;;;;;;;2.45;2.08;;;;;;;;;;5021002;28;20049;-73
2023/07/23 04:44:40;;;;;;;2.60;2.40;;;;;;;;;;5023700;28;20037;-73
2023/07/23 04:47:07;;;;;;;2.42;2.22;;;;;;;;;;5020195;28;20045;-72
2023/07/23 04:49:35;;;;;;;2.60;2.40;;;;;;;;;;5012522;28;20041;-73
2023/07/23 04:52:02;;;;;;;2.50;2.30;;;;;;;;;;5021443;28;20122;-76
2023/07/23 04:54:30;;;;;;;2.60;2.40;;;;;;;;;;5015884;28;20057;-73
2023/07/23 04:56:58;;;;;;;2.63;2.40;;;;;;;;;;5015058;28;20050;-76
2023/07/23 04:59:25;;;;;;;2.47;2.25;;;;;;;;;;5012035;28;20397;-73
2023/07/23 05:01:52;;;;;;;2.20;2.10;;;;;;;;;;5010871;28;20085;-73
2023/07/23 05:04:20;;;;;;;2.80;2.60;;;;;;;;;;5020233;28;20092;-76
2023/07/23 05:06:47;;;;;;;2.65;2.50;;;;;;;;;;5015626;28;20057;-76
2023/07/23 05:09:15;;;;;;;2.95;2.65;;;;;;;;;;5017669;28;20539;-76
2023/07/23 05:11:42;;;;;;;3.13;2.85;;;;;;;;;;5014000;28;20060;-73
2023/07/23 05:14:10;;;;;;;2.53;2.42;;;;;;;;;;5018919;28;20042;-76
2023/07/23 05:16:37;;;;;;;2.65;2.50;;;;;;;;;;5011913;28;20164;-75
2023/07/23 05:19:04;;;;;;;2.80;2.60;;;;;;;;;;5019176;28;20091;-75
2023/07/23 05:21:34;;;;;;;2.60;2.40;;;;;;;;;;5016092;28;20052;-74
2023/07/23 05:24:02;;;;;;;3.40;2.45;;;;;;;;;;5022252;28;20060;-75
2023/07/23 05:26:30;;;;;;;2.40;2.30;;;;;;;;;;5022016;28;20581;-77
2023/07/23 05:28:57;;;;;;;2.65;2.50;;;;;;;;;;5013237;28;20056;-73
2023/07/23 05:31:24;;;;;;;2.10;2.00;;;;;;;;;;5013295;28;20061;-73
2023/07/23 05:33:52;;;;;;;2.25;2.15;;;;;;;;;;5019872;28;20049;-75
2023/07/23 05:36:19;;;;;;;2.25;2.05;;;;;;;;;;5010571;28;20125;-75
2023/07/23 05:38:47;;;;;;;2.53;2.33;;;;;;;;;;5015689;28;20053;-73
2023/07/23 05:41:14;;;;;;;2.63;2.42;;;;;;;;;;5016667;28;20045;-74
2023/07/23 05:43:41;;;;;;;2.20;2.10;;;;;;;;;;5009545;28;20511;-77
2023/07/23 05:46:09;;;;;;;2.25;2.15;;;;;;;;;;5018723;28;20503;-75
2023/07/23 05:48:36;;;;;;;2.45;2.25;;;;;;;;;;5023405;28;20045;-76
2023/07/23 05:51:03;;;;;;;2.28;2.10;;;;;;;;;;5010508;28;20050;-73
2023/07/23 05:53:31;;;;;;;2.30;2.20;;;;;;;;;;5011858;28;20052;-77
2023/07/23 05:55:58;;;;;;;2.50;2.30;;;;;;;;;;5018868;28;20083;-77
2023/07/23 05:58:27;;;;;;;2.72;2.55;;;;;;;;;;5015454;28;20045;-77
2023/07/23 06:00:54;;;;;;;2.30;2.20;;;;;;;;;;5012800;28;20140;-76
2023/07/23 06:03:22;;;;;;;2.45;2.35;;;;;;;;;;5016137;28;20042;-77
2023/07/23 06:05:49;;;;;;;2.55;2.35;;;;;;;;;;5018187;28;20115;-76
2023/07/23 06:08:17;;;;;;;2.15;2.05;;;;;;;;;;5016812;28;20516;-77
2023/07/23 06:10:44;;;;;;;2.20;2.10;;;;;;;;;;5013248;28;20458;-73
2023/07/23 06:13:12;;;;;;;2.45;2.28;;;;;;;;;;5015383;28;20103;-73
2023/07/23 06:15:39;;;;;;;2.55;2.45;;;;;;;;;;5014242;28;20129;-73
2023/07/23 06:18:06;;;;;;;2.33;2.20;;;;;;;;;;5009600;28;20045;-74
2023/07/23 06:20:34;;;;;;;3.75;2.00;;;;;;;;;;5018769;28;20045;-76
2023/07/23 06:23:01;;;;;;;2.15;2.05;;;;;;;;;;5018427;28;20101;-73
2023/07/23 06:25:29;;;;;;;2.58;2.42;;;;;;;;;;5017211;28;20120;-75
2023/07/23 06:27:56;;;;;;;2.45;2.25;;;;;;;;;;5025273;28;20083;-76
2023/07/23 06:30:24;;;;;;;2.28;2.17;;;;;;;;;;5021114;28;20095;-74
2023/07/23 06:32:51;;;;;;;2.38;2.28;;;;;;;;;;5023142;28;20041;-75
2023/07/23 06:35:19;;;;;;;2.42;2.22;;;;;;;;;;5027429;28;20037;-77
2023/07/23 06:37:46;;;;;;;2.25;2.10;;;;;;;;;;5019539;28;20499;-74
2023/07/23 06:40:13;;;;;;;2.22;2.03;;;;;;;;;;5020312;28;20566;-74
2023/07/23 06:42:41;;;;;;;2.60;2.40;;;;;;;;;;5023223;28;20047;-73
2023/07/23 06:45:09;;;;;;;3.80;2.00;;;;;;;;;;5023172;28;20128;-73
2023/07/23 06:47:38;;;;;;;2.47;2.30;;;;;;;;;;5023759;28;20046;-74
2023/07/23 06:50:06;;;;;;;2.22;2.13;;;;;;;;;;5021631;28;20052;-77
2023/07/23 06:52:33;;;;;;;2.45;2.25;;;;;;;;;;5023997;28;20543;-73
2023/07/23 06:55:01;;;;;;;2.97;2.50;;;;;;;;;;5020356;28;20057;-74
2023/07/23 06:57:28;;;;;;;2.83;2.47;;;;;;;;;;5022685;28;20115;-76
2023/07/23 06:59:55;;;;;;;2.25;2.15;;;;;;;;;;5021224;28;20069;-73
2023/07/23 07:02:23;;;;;;;2.40;2.30;;;;;;;;;;5023054;28;20045;-73
2023/07/23 07:04:51;;;;;;;2.50;2.30;;;;;;;;;;5021260;28;20041;-76
2023/07/23 07:07:18;;;;;;;2.50;2.30;;;;;;;;;;5020224;28;20052;-77
2023/07/23 07:09:46;;;;;;;2.55;2.35;;;;;;;;;;5019324;28;20120;-74
2023/07/23 07:12:14;;;;;;;2.42;2.22;;;;;;;;;;5017985;28;20048;-74
2023/07/23 07:14:41;;;;;;;2.22;2.13;;;;;;;;;;5057539;22;20077;-79
2023/07/23 07:17:09;;;;;;;2.65;2.45;;;;;;;;;;5018973;28;20046;-78
2023/07/23 07:19:36;;;;;;;2.72;2.00;;;;;;;;;;5023820;28;20049;-77
2023/07/23 07:22:04;;;;;;;2.22;2.13;;;;;;;;;;5026480;28;20049;-80
2023/07/23 07:24:31;;;;;;;2.05;1.92;;;;;;;;;;5026175;28;20053;-82
2023/07/23 07:26:59;;;;;;;2.35;2.15;;;;;;;;;;5025425;28;20120;-77
2023/07/23 07:29:26;;;;;;;2.45;2.08;;;;;;;;;;5027599;28;20145;-80
2023/07/23 07:31:53;;;;;;;2.33;2.13;;;;;;;;;;5020167;28;20149;-79
2023/07/23 07:34:21;;;;;;;2.58;2.40;;;;;;;;;;5021138;28;20049;-79
2023/07/23 07:36:49;;;;;;;2.30;1.90;;;;;;;;;;5019530;28;20041;-80
2023/07/23 07:39:16;;;;;;;2.50;2.30;;;;;;;;;;5021053;28;20057;-79
2023/07/23 07:41:44;;;;;;;2.20;2.10;;;;;;;;;;5018915;28;20054;-80
2023/07/23 07:44:11;;;;;;;4.13;2.20;;;;;;;;;;5020308;28;20049;-79
2023/07/23 07:46:38;;;;;;;2.63;1.90;;;;;;;;;;5013916;28;20041;-77
2023/07/23 07:49:06;;;;;;;2.33;2.20;;;;;;;;;;5019842;28;20076;-79
2023/07/23 07:51:33;;;;;;;2.08;1.98;;;;;;;;;;5015302;28;20061;-81
2023/07/23 07:54:01;;;;;;;2.00;1.90;;;;;;;;;;5016075;28;20042;-78
2023/07/23 07:56:28;;;;;;;1.90;1.80;;;;;;;;;;5019529;28;20450;-78
2023/07/23 07:58:56;;;;;;;2.78;2.00;;;;;;;;;;5011710;28;20143;-80
2023/07/23 08:01:24;;;;;;;2.47;2.28;;;;;;;;;;5018433;28;20080;-82
2023/07/23 08:03:51;;;;;;;2.13;2.00;;;;;;;;;;5021366;28;20059;-81
2023/07/23 08:06:19;;;;;;;3.58;1.90;;;;;;;;;;5017810;28;20502;-80
2023/07/23 08:08:50;;;;;;;2.08;1.98;;;;;;;;;;5018897;28;20092;-78
2023/07/23 08:11:18;;;;;;;2.00;1.90;;;;;;;;;;5017936;28;20499;-79
2023/07/23 08:13:45;;;;;;;1.85;1.75;;;;;;;;;;5020644;28;20056;-80
2023/07/23 08:16:15;;;;;;;3.13;2.03;;;;;;;;;;5016646;28;20411;-80
2023/07/23 08:18:44;;;;;;;2.10;2.00;;;;;;;;;;5017650;28;20434;-78
2023/07/23 08:21:13;;;;;;;2.30;2.20;;;;;;;;;;5015554;28;20046;-81
2023/07/23 08:23:42;;;;;;;5.10;1.77;;;;;;;;;;5014944;28;20115;-79
2023/07/23 08:26:13;;;;;;;1.98;1.88;;;;;;;;;;5015346;28;20478;-82
2023/07/23 08:28:44;;;;;;;2.10;2.00;;;;;;;;;;5019076;28;20049;-80
2023/07/23 08:31:14;;;;;;;;;;;;;;;;;;5017386;28;20128;-81
2023/07/23 08:33:42;;;;;;;2.03;1.92;;;;;;;;;;5018984;28;19932;-78
2023/07/23 08:36:10;;;;;;;2.30;2.10;;;;;;;;;;5020407;28;20790;-79
2023/07/23 08:38:37;;;;;;;2.08;1.90;;;;;;;;;;5013706;28;20054;-77
2023/07/23 08:41:10;;;;;;;3.58;2.28;;;;;;;;;;5033593;28;20447;-80
2023/07/23 08:43:41;;;;;;;1.80;1.70;;;;;;;;;;5028209;28;20076;-78
2023/07/23 08:46:23;;;;;;;2.17;2.00;;;;;;;;;;5019075;28;20093;-78
2023/07/23 08:49:03;;;;;;;2.10;1.98;;;;;;;;;;5034491;28;20092;-81
2023/07/23 08:51:35;;;;;;;1.90;1.80;;;;;;;;;;5003975;28;20562;-77
2023/07/23 08:54:06;;;;;;;2.00;1.90;;;;;;;;;;5005643;28;20080;-81
2023/07/23 08:56:34;;;;;;;1.70;1.63;;;;;;;;;;5006149;28;20069;-81
2023/07/23 08:59:02;;;;;;;2.65;2.03;;;;;;;;;;5004116;28;20873;-82
2023/07/23 09:01:37;;;;;;;2.13;1.92;;;;;;;;;;5002599;28;20056;-81
2023/07/23 09:04:06;;;;;;;1.90;1.80;;;;;;;;;;5009407;28;20063;-79
2023/07/23 09:06:34;;;;;;;2.10;2.00;;;;;;;;;;5024059;28;20111;-81
2023/07/23 09:09:05;;;;;;;2.35;2.25;;;;;;;;;;5017924;28;20089;-82
2023/07/23 09:11:33;;;;;;;;;;;;;;;;;;5001959;28;20050;-80
2023/07/23 09:14:02;;;;;;;3.25;1.77;;;;;;;;;;5004751;28;19932;-78
2023/07/23 09:16:29;;;;;;;2.08;1.90;;;;;;;;;;5020781;28;20056;-77
2023/07/23 09:18:58;;;;;;;1.80;1.70;;;;;;;;;;5023823;28;20986;-78
2023/07/23 09:21:27;;;;;;;2.00;1.90;;;;;;;;;;5015071;28;20076;-78
2023/07/23 09:23:56;;;;;;;3.25;1.80;;;;;;;;;;5024271;28;20072;-80
2023/07/23 09:26:27;;;;;;;2.10;2.00;;;;;;;;;;5029151;28;20123;-78
2023/07/23 09:28:57;;;;;;;1.90;1.80;;;;;;;;;;5007403;28;20049;-78
2023/07/23 09:31:30;;;;;;;2.20;2.00;;;;;;;;;;5009186;28;20050;-79
2023/07/23 09:34:02;;;;;;;2.47;2.00;;;;;;;;;;5017373;28;20057;-78
2023/07/23 09:36:30;;;;;;;1.40;1.40;;;;;;;;;;5015083;28;20058;-78
2023/07/23 09:39:04;;;;;;;2.20;1.80;;;;;;;;;;5006465;28;20045;-82
2023/07/23 09:41:35;;;;;;;2.03;1.80;;;;;;;;;;5013806;28;20072;-78
2023/07/23 09:44:11;;;;;;;2.03;1.92;;;;;;;;;;5018416;28;20070;-78
2023/07/23 09:46:45;;;;;;;1.88;1.77;;;;;;;;;;4994619;28;20049;-78
2023/07/23 09:49:13;;;;;;;1.95;1.70;;;;;;;;;;5018422;28;20037;-79
2023/07/23 09:51:50;;;;;;;1.98;1.88;;;;;;;;;;5011989;28;20059;-78
2023/07/23 09:54:17;;;;;;;1.80;1.70;;;;;;;;;;5011769;28;20048;-79
2023/07/23 09:56:46;;;;;;;1.90;1.80;;;;;;;;;;5008997;28;20053;-79
2023/07/23 09:59:13;;;;;;;2.30;2.10;;;;;;;;;;5001460;28;20057;-79
2023/07/23 10:01:41;;;;;;;1.60;1.50;;;;;;;;;;5005983;28;20143;-78
2023/07/23 10:04:11;;;;;;;1.80;1.70;;;;;;;;;;5004475;28;20046;-79
2023/07/23 10:06:39;;;;;;;1.70;1.60;;;;;;;;;;5010924;28;20063;-77
2023/07/23 10:09:09;;;;;;;1.83;1.73;;;;;;;;;;4999294;28;20057;-82
2023/07/23 10:11:36;;;;;;;1.88;1.77;;;;;;;;;;5003035;28;20069;-85
2023/07/23 10:14:04;;;;;;;2.80;2.40;;;;;;;;;;5001802;28;20496;-78
2023/07/23 10:16:38;;;;;;;4.22;2.30;;;;;;;;;;5004281;28;20446;-81
2023/07/23 10:19:07;;;;;;;1.88;1.77;;;;;;;;;;5005683;28;20054;-80
2023/07/23 10:21:35;;;;;;;1.52;1.52;;;;;;;;;;5002568;28;20162;-80
2023/07/23 10:24:03;;;;;;;1.90;1.80;;;;;;;;;;4998297;28;20050;-81
2023/07/23 10:26:41;;;;;;;1.80;1.70;;;;;;;;;;5000083;28;20049;-78
2023/07/23 10:29:13;;;;;;;1.75;1.65;;;;;;;;;;5004179;28;20054;-79
2023/07/23 10:31:45;;;;;;;1.90;1.80;;;;;;;;;;5010801;28;20046;-80
2023/07/23 10:34:12;;;;;;;;;;;;;;;;;;5009429;28;20045;-79
2023/07/23 10:36:59;;;;;;;1.80;1.70;;;;;;;;;;5007466;28;19929;-79
2023/07/23 10:39:38;;;;;;;1.80;1.70;;;;;;;;;;5010320;28;20041;-78
2023/07/23 10:42:05;;;;;;;1.90;1.67;;;;;;;;;;5017630;28;20052;-78
2023/07/23 10:44:33;;;;;;;2.50;2.30;;;;;;;;;;5016683;28;20432;-79
2023/07/23 10:47:02;;;;;;;2.10;1.88;;;;;;;;;;5017327;28;20053;-77
2023/07/23 10:49:30;;;;;;;1.80;1.70;;;;;;;;;;5023941;28;20511;-81
2023/07/23 10:52:13;;;;;;;4.55;1.58;;;;;;;;;;5011856;28;20053;-77
2023/07/23 10:54:44;;;;;;;1.67;1.60;;;;;;;;;;5019337;28;20045;-77
2023/07/23 10:57:23;;;;;;;1.70;1.60;;;;;;;;;;5013396;28;20151;-78
2023/07/23 10:59:54;;;;;;;1.88;1.70;;;;;;;;;;5024384;28;20558;-80
2023/07/23 11:02:28;;;;;;;2.28;1.85;;;;;;;;;;5022555;28;20423;-79
2023/07/23 11:04:58;;;;;;;1.40;1.40;;;;;;;;;;5034380;28;20061;-78
2023/07/23 11:07:27;;;;;;;1.80;1.70;;;;;;;;;;5014667;28;20283;-78
2023/07/23 11:09:55;;;;;;;1.80;1.70;;;;;;;;;;5016167;28;20050;-80
2023/07/23 11:12:23;;;;;;;1.60;1.50;;;;;;;;;;5010870;28;20073;-78
2023/07/23 11:14:52;;;;;;;1.70;1.60;;;;;;;;;;5012091;28;20045;-81
2023/07/23 11:17:20;;;;;;;1.50;1.40;;;;;;;;;;5014951;28;20045;-79
2023/07/23 11:19:48;;;;;;;1.50;1.40;;;;;;;;;;5010157;28;20041;-82
2023/07/23 11:22:15;;;;;;;2.30;1.67;;;;;;;;;;5011862;28;20053;-80
2023/07/23 11:24:43;;;;;;;1.60;1.50;;;;;;;;;;5007530;28;20056;-79
2023/07/23 11:27:12;;;;;;;1.60;1.50;;;;;;;;;;5005444;28;20053;-79
2023/07/23 11:29:40;;;;;;;1.40;1.40;;;;;;;;;;5006744;28;20037;-80
2023/07/23 11:32:08;;;;;;;2.38;1.70;;;;;;;;;;5002409;28;20057;-82
2023/07/23 11:34:36;;;;;;;1.55;1.45;;;;;;;;;;5023047;28;21357;-78
2023/07/23 11:37:03;;;;;;;1.50;1.40;;;;;;;;;;5010280;28;20054;-78
2023/07/23 11:39:31;;;;;;;1.42;1.40;;;;;;;;;;5025193;28;20191;-81
2023/07/23 11:41:58;;;;;;;1.60;1.50;;;;;;;;;;5002649;28;20132;-81
2023/07/23 11:44:26;;;;;;;1.85;1.75;;;;;;;;;;5001565;28;20141;-78
2023/07/23 11:47:03;;;;;;;1.80;1.70;;;;;;;;;;5008492;28;20558;-80
2023/07/23 11:49:31;;;;;;;2.28;1.70;;;;;;;;;;5009871;28;20423;-82
2023/07/23 11:51:58;;;;;;;1.98;1.88;;;;;;;;;;5004570;28;20116;-79
2023/07/23 11:54:26;;;;;;;2.17;1.80;;;;;;;;;;5010956;28;20456;-80
2023/07/23 11:56:53;;;;;;;1.90;1.80;;;;;;;;;;5022658;28;20152;-78
2023/07/23 11:59:21;;;;;;;1.70;1.60;;;;;;;;;;5023072;28;20455;-81
2023/07/23 12:01:48;;;;;;;4.53;1.73;;;;;;;;;;5020599;28;20055;-78
2023/07/23 12:04:16;;;;;;;2.80;1.60;;;;;;;;;;5022765;28;20042;-78
2023/07/23 12:06:43;;;;;;;2.75;2.10;;;;;;;;;;5019924;28;20123;-83
2023/07/23 12:09:12;;;;;;;2.05;1.85;;;;;;;;;;5022947;28;20045;-79
2023/07/23 12:11:40;;;;;;;1.95;1.85;;;;;;;;;;5010826;28;20042;-78
2023/07/23 12:14:08;;;;;;;1.90;1.80;;;;;;;;;;5005981;28;20056;-80
2023/07/23 12:16:38;;;;;;;1.67;1.58;;;;;;;;;;5008014;28;20183;-82
2023/07/23 12:19:05;;;;;;;2.00;1.80;;;;;;;;;;5016571;28;20041;-79
2023/07/23 12:21:34;;;;;;;1.83;1.73;;;;;;;;;;5023139;28;20065;-78
2023/07/23 12:24:12;;;;;;;2.25;2.15;;;;;;;;;;5015688;28;20068;-81
2023/07/23 12:26:39;;;;;;;2.17;2.08;;;;;;;;;;4998837;28;20390;-80
2023/07/23 12:29:10;;;;;;;2.45;2.35;;;;;;;;;;5000798;28;20053;-81
2023/07/23 12:31:41;;;;;;;1.83;1.73;;;;;;;;;;5001700;28;20048;-78
2023/07/23 12:34:09;;;;;;;4.45;2.20;;;;;;;;;;4993233;28;20180;-81
2023/07/23 12:36:37;;;;;;;2.30;2.10;;;;;;;;;;5001579;28;20192;-80
2023/07/23 12:39:05;;;;;;;2.35;2.15;;;;;;;;;;5004405;28;20091;-81
2023/07/23 12:41:33;;;;;;;2.47;2.13;;;;;;;;;;5004730;28;20128;-81
2023/07/23 12:44:02;;;;;;;2.83;2.60;;;;;;;;;;5006435;28;20124;-82
2023/07/23 12:46:30;;;;;;;2.83;2.63;;;;;;;;;;5018351;28;20631;-79
2023/07/23 12:48:58;;;;;;;2.78;2.58;;;;;;;;;;5018355;28;20130;-80
2023/07/23 12:51:25;;;;;;;2.50;2.30;;;;;;;;;;5020198;28;20049;-80
2023/07/23 12:53:53;;;;;;;2.60;2.50;;;;;;;;;;5023389;28;20045;-79
2023/07/23 12:56:21;;;;;;;2.63;2.42;;;;;;;;;;5029355;28;20049;-80
2023/07/23 12:58:52;;;;;;;2.45;2.25;;;;;;;;;;5027371;28;20494;-79
2023/07/23 13:01:20;;;;;;;2.10;2.00;;;;;;;;;;5028374;28;20052;-82
2023/07/23 13:03:47;;;;;;;2.33;2.20;;;;;;;;;;5021409;28;20065;-79
2023/07/23 13:06:15;;;;;;;2.30;2.20;;;;;;;;;;5018882;28;20045;-78
2023/07/23 13:08:42;;;;;;;2.58;2.47;;;;;;;;;;5016923;28;20057;-79
2023/07/23 13:11:10;;;;;;;2.20;2.10;;;;;;;;;;5017773;28;20128;-79
2023/07/23 13:13:38;;;;;;;5.60;2.22;;;;;;;;;;5019874;28;20050;-78
2023/07/23 13:16:06;;;;;;;2.25;2.15;;;;;;;;;;5046391;22;20462;-84
2023/07/23 13:18:35;;;;;;;2.40;2.30;;;;;;;;;;5018548;28;20040;-86
2023/07/23 13:21:05;;;;;;;2.70;2.50;;;;;;;;;;5022805;28;20370;-84
2023/07/23 13:23:33;;;;;;;2.55;2.42;;;;;;;;;;5018393;28;20053;-85
2023/07/23 13:26:00;;;;;;;2.53;2.35;;;;;;;;;;5023699;28;20053;-86
2023/07/23 13:28:29;;;;;;;2.60;2.40;;;;;;;;;;5018264;28;20411;-85
2023/07/23 13:31:03;;;;;;;2.80;2.60;;;;;;;;;;5026701;28;20502;-86
2023/07/23 13:33:30;;;;;;;2.83;2.63;;;;;;;;;;5025389;28;20183;-86
2023/07/23 13:35:57;;;;;;;3.13;2.83;;;;;;;;;;5017162;28;20418;-85
2023/07/23 13:38:25;;;;;;;3.20;3.00;;;;;;;;;;5042069;28;20037;-88
2023/07/23 13:40:58;;;;;;;3.00;2.80;;;;;;;;;;5022175;28;20500;-84
2023/07/23 13:43:25;;;;;;;2.90;2.70;;;;;;;;;;5022789;28;20069;-85
2023/07/23 13:45:53;;;;;;;3.50;3.30;;;;;;;;;;5022287;28;20060;-86
2023/07/23 13:48:21;;;;;;;3.20;2.95;;;;;;;;;;5018701;28;20052;-87
2023/07/23 13:50:49;;;;;;;3.30;2.90;;;;;;;;;;5025423;28;20049;-87
2023/07/23 13:53:19;;;;;;;3.00;2.80;;;;;;;;;;5025673;28;20047;-87
2023/07/23 13:55:46;;;;;;;3.05;2.70;;;;;;;;;;5023978;28;20038;-87
2023/07/23 13:58:14;;;;;;;2.60;2.50;;;;;;;;;;5018060;28;20729;-86
2023/07/23 14:00:41;;;;;;;3.30;3.10;;;;;;;;;;5022351;28;20048;-87
2023/07/23 14:03:09;;;;;;;4.10;3.20;;;;;;;;;;5033953;22;20056;-75
2023/07/23 14:05:36;;;;;;;3.25;2.95;;;;;;;;;;5017360;28;20049;-75
2023/07/23 14:08:04;;;;;;;3.15;2.95;;;;;;;;;;5020079;28;20053;-75
2023/07/23 14:10:31;;;;;;;3.13;2.92;;;;;;;;;;5031672;28;20037;-75
2023/07/23 14:12:59;;;;;;;2.90;2.70;;;;;;;;;;5016330;28;20046;-75
2023/07/23 14:15:26;;;;;;;3.03;2.83;;;;;;;;;;5007481;28;20081;-75
2023/07/23 14:17:54;;;;;;;3.63;3.33;;;;;;;;;;5014954;28;20170;-75
2023/07/23 14:20:22;;;;;;;3.20;3.00;;;;;;;;;;5009584;28;20446;-75
2023/07/23 14:22:49;;;;;;;3.35;3.08;;;;;;;;;;5026847;28;20052;-75
2023/07/23 14:25:16;;;;;;;3.40;3.20;;;;;;;;;;5028142;28;20140;-76
2023/07/23 14:27:44;;;;;;;3.97;3.67;;;;;;;;;;5030254;28;20104;-75
2023/07/23 14:30:11;;;;;;;3.10;2.90;;;;;;;;;;5033978;28;20320;-76
2023/07/23 14:32:39;;;;;;;3.58;3.28;;;;;;;;;;5032215;28;20128;-76
2023/07/23 14:35:07;;;;;;;3.60;3.35;;;;;;;;;;5030911;28;20048;-76
2023/07/23 14:37:34;;;;;;;3.58;3.25;;;;;;;;;;5030838;28;20495;-76
2023/07/23 14:40:04;;;;;;;3.50;3.20;;;;;;;;;;5032359;28;20076;-76
2023/07/23 14:42:32;;;;;;;;;;;;;;;;;;5026419;28;20054;-75
2023/07/23 14:44:59;;;;;;;3.47;3.28;;;;;;;;;;5025710;28;19969;-76
2023/07/23 14:47:27;;;;;;;3.65;3.40;;;;;;;;;;5031897;28;20498;-76
2023/07/23 14:49:54;;;;;;;3.38;3.13;;;;;;;;;;5022758;28;20046;-76